sensor_id;sensor_type;location;lat;lon;timestamp;P1;durP1;ratioP1;P2;durP2;ratioP2
73670;SDS011;61968;48.178;11.566;2022-07-12T00:01:25;1.92;;;1.75;;
73670;SDS011;61968;48.178;11.566;2022-07-12T00:03:51;2.28;;;2.05;;
73670;SDS011;61968;48.178;11.566;2022-07-12T00:06:18;2.42;;;2.22;;
73670;SDS011;61968;48.178;11.566;2022-07-12T00:08:46;3.10;;;2.25;;
73670;SDS011;61968;48.178;11.566;2022-07-12T00:11:12;3.08;;;2.53;;
73670;SDS011;61968;48.178;11.566;2022-07-12T00:13:39;3.70;;;2.63;;
73670;SDS011;61968;48.178;11.566;2022-07-12T00:16:05;2.80;;;2.50;;
73670;SDS011;61968;48.178;11.566;2022-07-12T00:18:32;2.85;;;2.10;;
73670;SDS011;61968;48.178;11.566;2022-07-12T00:20:59;2.03;;;1.90;;
73670;SDS011;61968;48.178;11.566;2022-07-12T00:23:26;2.05;;;1.88;;
73670;SDS011;61968;48.178;11.566;2022-07-12T00:25:54;2.60;;;2.40;;
73670;SDS011;61968;48.178;11.566;2022-07-12T00:28:20;2.03;;;1.73;;
73670;SDS011;61968;48.178;11.566;2022-07-12T00:30:47;2.00;;;1.90;;
73670;SDS011;61968;48.178;11.566;2022-07-12T00:33:13;3.72;;;2.00;;
73670;SDS011;61968;48.178;11.566;2022-07-12T00:35:40;2.58;;;2.15;;
73670;SDS011;61968;48.178;11.566;2022-07-12T00:38:06;2.05;;;1.95;;
73670;SDS011;61968;48.178;11.566;2022-07-12T00:40:33;2.63;;;2.35;;
73670;SDS011;61968;48.178;11.566;2022-07-12T00:43:01;2.60;;;2.03;;
73670;SDS011;61968;48.178;11.566;2022-07-12T00:45:27;2.65;;;1.85;;
73670;SDS011;61968;48.178;11.566;2022-07-12T00:47:54;2.15;;;1.80;;
73670;SDS011;61968;48.178;11.566;2022-07-12T00:50:21;1.90;;;1.77;;
73670;SDS011;61968;48.178;11.566;2022-07-12T00:52:49;2.67;;;1.90;;
73670;SDS011;61968;48.178;11.566;2022-07-12T00:55:17;2.17;;;1.98;;
73670;SDS011;61968;48.178;11.566;2022-07-12T00:57:45;2.13;;;2.00;;
73670;SDS011;61968;48.178;11.566;2022-07-12T01:00:14;3.10;;;2.47;;
73670;SDS011;61968;48.178;11.566;2022-07-12T01:02:43;2.35;;;2.15;;
73670;SDS011;61968;48.178;11.566;2022-07-12T01:05:10;2.33;;;2.13;;
73670;SDS011;61968;48.178;11.566;2022-07-12T01:07:37;2.70;;;2.50;;
73670;SDS011;61968;48.178;11.566;2022-07-12T01:10:04;2.20;;;2.00;;
73670;SDS011;61968;48.178;11.566;2022-07-12T01:12:32;2.30;;;2.13;;
73670;SDS011;61968;48.178;11.566;2022-07-12T01:14:58;2.70;;;2.50;;
73670;SDS011;61968;48.178;11.566;2022-07-12T01:17:27;2.80;;;2.50;;
73670;SDS011;61968;48.178;11.566;2022-07-12T01:19:55;4.47;;;2.10;;
73670;SDS011;61968;48.178;11.566;2022-07-12T01:22:25;3.50;;;2.15;;
73670;SDS011;61968;48.178;11.566;2022-07-12T01:24:54;2.40;;;2.20;;
73670;SDS011;61968;48.178;11.566;2022-07-12T01:27:20;2.40;;;2.20;;
73670;SDS011;61968;48.178;11.566;2022-07-12T01:29:47;2.50;;;2.30;;
73670;SDS011;61968;48.178;11.566;2022-07-12T01:32:13;1.88;;;1.77;;
73670;SDS011;61968;48.178;11.566;2022-07-12T01:34:54;2.17;;;2.00;;
73670;SDS011;61968;48.178;11.566;2022-07-12T01:37:22;2.95;;;2.28;;
73670;SDS011;61968;48.178;11.566;2022-07-12T01:39:51;2.22;;;2.13;;
73670;SDS011;61968;48.178;11.566;2022-07-12T01:42:21;2.45;;;2.33;;
73670;SDS011;61968;48.178;11.566;2022-07-12T01:44:57;2.50;;;2.22;;
73670;SDS011;61968;48.178;11.566;2022-07-12T01:47:24;4.55;;;2.10;;
73670;SDS011;61968;48.178;11.566;2022-07-12T01:49:52;2.00;;;1.83;;
73670;SDS011;61968;48.178;11.566;2022-07-12T01:52:19;2.78;;;2.50;;
73670;SDS011;61968;48.178;11.566;2022-07-12T01:54:46;3.85;;;2.30;;
73670;SDS011;61968;48.178;11.566;2022-07-12T01:57:14;2.70;;;2.08;;
73670;SDS011;61968;48.178;11.566;2022-07-12T01:59:41;1.92;;;1.83;;
73670;SDS011;61968;48.178;11.566;2022-07-12T02:02:08;2.15;;;1.65;;
73670;SDS011;61968;48.178;11.566;2022-07-12T02:04:35;2.58;;;1.90;;
73670;SDS011;61968;48.178;11.566;2022-07-12T02:07:03;1.73;;;1.63;;
73670;SDS011;61968;48.178;11.566;2022-07-12T02:09:30;2.30;;;2.10;;
73670;SDS011;61968;48.178;11.566;2022-07-12T02:11:57;2.03;;;1.90;;
73670;SDS011;61968;48.178;11.566;2022-07-12T02:14:25;3.70;;;2.70;;
73670;SDS011;61968;48.178;11.566;2022-07-12T02:16:52;2.40;;;2.20;;
73670;SDS011;61968;48.178;11.566;2022-07-12T02:19:19;5.40;;;2.40;;
73670;SDS011;61968;48.178;11.566;2022-07-12T02:21:45;2.05;;;1.88;;
73670;SDS011;61968;48.178;11.566;2022-07-12T02:24:12;2.92;;;2.15;;
73670;SDS011;61968;48.178;11.566;2022-07-12T02:26:39;3.38;;;2.17;;
73670;SDS011;61968;48.178;11.566;2022-07-12T02:29:05;4.15;;;2.35;;
73670;SDS011;61968;48.178;11.566;2022-07-12T02:31:33;2.45;;;2.22;;
73670;SDS011;61968;48.178;11.566;2022-07-12T02:34:00;4.43;;;2.58;;
73670;SDS011;61968;48.178;11.566;2022-07-12T02:36:26;2.65;;;2.35;;
73670;SDS011;61968;48.178;11.566;2022-07-12T02:38:53;2.30;;;2.10;;
73670;SDS011;61968;48.178;11.566;2022-07-12T02:41:20;2.90;;;2.67;;
73670;SDS011;61968;48.178;11.566;2022-07-12T02:43:46;3.25;;;2.08;;
73670;SDS011;61968;48.178;11.566;2022-07-12T02:46:13;2.90;;;2.42;;
73670;SDS011;61968;48.178;11.566;2022-07-12T02:48:41;6.57;;;2.33;;
73670;SDS011;61968;48.178;11.566;2022-07-12T02:51:08;4.25;;;2.92;;
73670;SDS011;61968;48.178;11.566;2022-07-12T02:53:35;2.55;;;2.35;;
73670;SDS011;61968;48.178;11.566;2022-07-12T02:56:03;2.95;;;2.75;;
73670;SDS011;61968;48.178;11.566;2022-07-12T03:01:03;3.83;;;2.40;;
73670;SDS011;61968;48.178;11.566;2022-07-12T03:03:30;2.85;;;2.03;;
73670;SDS011;61968;48.178;11.566;2022-07-12T03:05:58;2.75;;;2.55;;
73670;SDS011;61968;48.178;11.566;2022-07-12T03:08:24;2.47;;;2.28;;
73670;SDS011;61968;48.178;11.566;2022-07-12T03:10:51;2.78;;;2.28;;
73670;SDS011;61968;48.178;11.566;2022-07-12T03:13:18;2.70;;;2.22;;
73670;SDS011;61968;48.178;11.566;2022-07-12T03:15:44;4.63;;;2.30;;
73670;SDS011;61968;48.178;11.566;2022-07-12T03:18:11;2.53;;;2.33;;
73670;SDS011;61968;48.178;11.566;2022-07-12T03:20:38;2.90;;;2.20;;
73670;SDS011;61968;48.178;11.566;2022-07-12T03:23:05;2.63;;;2.00;;
73670;SDS011;61968;48.178;11.566;2022-07-12T03:25:32;3.67;;;2.22;;
73670;SDS011;61968;48.178;11.566;2022-07-12T03:27:59;2.35;;;2.00;;
73670;SDS011;61968;48.178;11.566;2022-07-12T03:30:25;1.85;;;1.75;;
73670;SDS011;61968;48.178;11.566;2022-07-12T03:32:52;2.20;;;1.67;;
73670;SDS011;61968;48.178;11.566;2022-07-12T03:35:18;2.63;;;2.28;;
73670;SDS011;61968;48.178;11.566;2022-07-12T03:37:45;3.75;;;2.00;;
73670;SDS011;61968;48.178;11.566;2022-07-12T03:40:15;1.80;;;1.70;;
73670;SDS011;61968;48.178;11.566;2022-07-12T03:42:43;2.70;;;2.05;;
73670;SDS011;61968;48.178;11.566;2022-07-12T03:45:10;2.47;;;1.52;;
73670;SDS011;61968;48.178;11.566;2022-07-12T03:47:37;3.08;;;1.92;;
73670;SDS011;61968;48.178;11.566;2022-07-12T03:50:05;3.47;;;2.33;;
73670;SDS011;61968;48.178;11.566;2022-07-12T03:52:32;2.67;;;2.30;;
73670;SDS011;61968;48.178;11.566;2022-07-12T03:54:59;3.17;;;2.00;;
73670;SDS011;61968;48.178;11.566;2022-07-12T03:57:28;2.20;;;2.00;;
73670;SDS011;61968;48.178;11.566;2022-07-12T03:59:55;3.08;;;2.28;;
73670;SDS011;61968;48.178;11.566;2022-07-12T04:02:22;3.30;;;2.38;;
73670;SDS011;61968;48.178;11.566;2022-07-12T04:04:49;4.35;;;2.67;;
73670;SDS011;61968;48.178;11.566;2022-07-12T04:07:16;2.38;;;2.05;;
73670;SDS011;61968;48.178;11.566;2022-07-12T04:09:42;3.10;;;2.00;;
73670;SDS011;61968;48.178;11.566;2022-07-12T04:12:09;7.68;;;3.15;;
73670;SDS011;61968;48.178;11.566;2022-07-12T04:14:37;2.67;;;2.47;;
73670;SDS011;61968;48.178;11.566;2022-07-12T04:17:03;3.05;;;2.53;;
73670;SDS011;61968;48.178;11.566;2022-07-12T04:19:30;2.83;;;2.17;;
73670;SDS011;61968;48.178;11.566;2022-07-12T04:21:57;2.95;;;2.28;;
73670;SDS011;61968;48.178;11.566;2022-07-12T04:24:23;2.45;;;2.22;;
73670;SDS011;61968;48.178;11.566;2022-07-12T04:26:50;4.20;;;2.63;;
73670;SDS011;61968;48.178;11.566;2022-07-12T04:29:17;3.20;;;2.75;;
73670;SDS011;61968;48.178;11.566;2022-07-12T04:31:45;3.42;;;2.50;;
73670;SDS011;61968;48.178;11.566;2022-07-12T04:34:12;3.42;;;2.50;;
73670;SDS011;61968;48.178;11.566;2022-07-12T04:36:41;2.58;;;2.35;;
73670;SDS011;61968;48.178;11.566;2022-07-12T04:39:08;3.00;;;2.70;;
73670;SDS011;61968;48.178;11.566;2022-07-12T04:41:35;4.30;;;2.65;;
73670;SDS011;61968;48.178;11.566;2022-07-12T04:44:02;3.67;;;2.75;;
73670;SDS011;61968;48.178;11.566;2022-07-12T04:46:28;4.07;;;3.67;;
73670;SDS011;61968;48.178;11.566;2022-07-12T04:48:56;4.75;;;2.67;;
73670;SDS011;61968;48.178;11.566;2022-07-12T04:51:23;3.42;;;3.10;;
73670;SDS011;61968;48.178;11.566;2022-07-12T04:53:49;5.15;;;2.83;;
73670;SDS011;61968;48.178;11.566;2022-07-12T04:56:16;2.75;;;2.53;;
73670;SDS011;61968;48.178;11.566;2022-07-12T04:58:42;3.80;;;2.53;;
73670;SDS011;61968;48.178;11.566;2022-07-12T05:01:09;4.18;;;2.47;;
73670;SDS011;61968;48.178;11.566;2022-07-12T05:03:35;4.70;;;3.05;;
73670;SDS011;61968;48.178;11.566;2022-07-12T05:06:03;5.60;;;3.40;;
73670;SDS011;61968;48.178;11.566;2022-07-12T05:08:30;3.72;;;3.40;;
73670;SDS011;61968;48.178;11.566;2022-07-12T05:10:57;6.60;;;3.85;;
73670;SDS011;61968;48.178;11.566;2022-07-12T05:13:23;5.90;;;3.25;;
73670;SDS011;61968;48.178;11.566;2022-07-12T05:15:49;3.97;;;2.92;;
73670;SDS011;61968;48.178;11.566;2022-07-12T05:18:16;3.92;;;2.90;;
73670;SDS011;61968;48.178;11.566;2022-07-12T05:20:42;8.45;;;3.55;;
73670;SDS011;61968;48.178;11.566;2022-07-12T05:23:10;5.45;;;2.80;;
73670;SDS011;61968;48.178;11.566;2022-07-12T05:25:37;3.55;;;3.25;;
73670;SDS011;61968;48.178;11.566;2022-07-12T05:28:03;3.53;;;2.70;;
73670;SDS011;61968;48.178;11.566;2022-07-12T05:30:30;5.50;;;3.03;;
73670;SDS011;61968;48.178;11.566;2022-07-12T05:32:58;6.45;;;3.38;;
73670;SDS011;61968;48.178;11.566;2022-07-12T05:35:26;3.70;;;2.20;;
73670;SDS011;61968;48.178;11.566;2022-07-12T05:37:53;2.22;;;1.98;;
73670;SDS011;61968;48.178;11.566;2022-07-12T05:40:21;3.83;;;1.88;;
73670;SDS011;61968;48.178;11.566;2022-07-12T05:42:47;2.45;;;1.75;;
73670;SDS011;61968;48.178;11.566;2022-07-12T05:45:14;4.53;;;2.08;;
73670;SDS011;61968;48.178;11.566;2022-07-12T05:47:43;3.47;;;2.05;;
73670;SDS011;61968;48.178;11.566;2022-07-12T05:50:10;7.20;;;1.88;;
73670;SDS011;61968;48.178;11.566;2022-07-12T05:52:36;2.28;;;2.08;;
73670;SDS011;61968;48.178;11.566;2022-07-12T05:55:22;4.55;;;1.95;;
73670;SDS011;61968;48.178;11.566;2022-07-12T05:57:48;1.77;;;1.25;;
73670;SDS011;61968;48.178;11.566;2022-07-12T06:00:15;5.90;;;1.92;;
73670;SDS011;61968;48.178;11.566;2022-07-12T06:02:41;1.73;;;1.42;;
73670;SDS011;61968;48.178;11.566;2022-07-12T06:05:08;1.63;;;1.52;;
73670;SDS011;61968;48.178;11.566;2022-07-12T06:07:35;1.55;;;1.38;;
73670;SDS011;61968;48.178;11.566;2022-07-12T06:10:02;0.80;;;0.80;;
73670;SDS011;61968;48.178;11.566;2022-07-12T06:12:30;1.63;;;1.30;;
73670;SDS011;61968;48.178;11.566;2022-07-12T06:14:57;1.45;;;1.27;;
73670;SDS011;61968;48.178;11.566;2022-07-12T06:17:23;1.17;;;1.08;;
73670;SDS011;61968;48.178;11.566;2022-07-12T06:19:50;1.20;;;1.00;;
73670;SDS011;61968;48.178;11.566;2022-07-12T06:22:18;1.17;;;0.90;;
73670;SDS011;61968;48.178;11.566;2022-07-12T06:24:44;1.92;;;1.10;;
73670;SDS011;61968;48.178;11.566;2022-07-12T06:27:11;1.10;;;1.00;;
73670;SDS011;61968;48.178;11.566;2022-07-12T06:29:38;1.20;;;1.10;;
73670;SDS011;61968;48.178;11.566;2022-07-12T06:32:05;1.65;;;1.13;;
73670;SDS011;61968;48.178;11.566;2022-07-12T06:34:35;1.65;;;1.13;;
73670;SDS011;61968;48.178;11.566;2022-07-12T06:37:02;1.52;;;1.27;;
73670;SDS011;61968;48.178;11.566;2022-07-12T06:39:30;1.13;;;1.02;;
73670;SDS011;61968;48.178;11.566;2022-07-12T06:41:57;1.15;;;1.05;;
73670;SDS011;61968;48.178;11.566;2022-07-12T06:44:23;1.35;;;0.90;;
73670;SDS011;61968;48.178;11.566;2022-07-12T06:46:51;0.75;;;0.75;;
73670;SDS011;61968;48.178;11.566;2022-07-12T06:49:17;0.75;;;0.75;;
73670;SDS011;61968;48.178;11.566;2022-07-12T06:51:44;1.27;;;1.17;;
73670;SDS011;61968;48.178;11.566;2022-07-12T06:54:11;1.80;;;0.93;;
73670;SDS011;61968;48.178;11.566;2022-07-12T06:56:37;1.23;;;0.88;;
73670;SDS011;61968;48.178;11.566;2022-07-12T06:59:04;0.80;;;0.77;;
73670;SDS011;61968;48.178;11.566;2022-07-12T07:01:30;1.42;;;1.00;;
73670;SDS011;61968;48.178;11.566;2022-07-12T07:03:58;1.10;;;1.00;;
73670;SDS011;61968;48.178;11.566;2022-07-12T07:06:25;4.40;;;1.27;;
73670;SDS011;61968;48.178;11.566;2022-07-12T07:08:51;1.00;;;1.00;;
73670;SDS011;61968;48.178;11.566;2022-07-12T07:11:18;1.08;;;0.90;;
73670;SDS011;61968;48.178;11.566;2022-07-12T07:13:44;0.80;;;0.80;;
73670;SDS011;61968;48.178;11.566;2022-07-12T07:16:11;1.00;;;0.80;;
73670;SDS011;61968;48.178;11.566;2022-07-12T07:18:38;1.20;;;0.88;;
73670;SDS011;61968;48.178;11.566;2022-07-12T07:21:06;0.95;;;0.90;;
73670;SDS011;61968;48.178;11.566;2022-07-12T07:23:33;0.70;;;0.70;;
73670;SDS011;61968;48.178;11.566;2022-07-12T07:25:59;0.73;;;0.73;;
73670;SDS011;61968;48.178;11.566;2022-07-12T07:28:26;0.90;;;0.75;;
73670;SDS011;61968;48.178;11.566;2022-07-12T07:30:52;2.10;;;0.73;;
73670;SDS011;61968;48.178;11.566;2022-07-12T07:33:18;0.80;;;0.80;;
73670;SDS011;61968;48.178;11.566;2022-07-12T07:35:45;0.82;;;0.82;;
73670;SDS011;61968;48.178;11.566;2022-07-12T07:38:13;6.38;;;0.85;;
73670;SDS011;61968;48.178;11.566;2022-07-12T07:40:40;0.70;;;0.70;;
73670;SDS011;61968;48.178;11.566;2022-07-12T07:43:07;1.23;;;1.00;;
73670;SDS011;61968;48.178;11.566;2022-07-12T07:45:33;1.00;;;1.00;;
73670;SDS011;61968;48.178;11.566;2022-07-12T07:48:00;2.35;;;0.90;;
73670;SDS011;61968;48.178;11.566;2022-07-12T07:50:27;0.80;;;0.80;;
73670;SDS011;61968;48.178;11.566;2022-07-12T07:52:54;0.98;;;0.98;;
73670;SDS011;61968;48.178;11.566;2022-07-12T07:55:22;0.90;;;0.82;;
73670;SDS011;61968;48.178;11.566;2022-07-12T07:57:49;2.28;;;1.23;;
73670;SDS011;61968;48.178;11.566;2022-07-12T08:00:15;0.85;;;0.85;;
73670;SDS011;61968;48.178;11.566;2022-07-12T08:02:42;0.68;;;0.68;;
73670;SDS011;61968;48.178;11.566;2022-07-12T08:05:09;5.13;;;1.30;;
73670;SDS011;61968;48.178;11.566;2022-07-12T08:07:35;1.17;;;0.90;;
73670;SDS011;61968;48.178;11.566;2022-07-12T08:10:02;1.67;;;0.77;;
73670;SDS011;61968;48.178;11.566;2022-07-12T08:12:30;4.88;;;0.90;;
73670;SDS011;61968;48.178;11.566;2022-07-12T08:14:56;0.80;;;0.80;;
73670;SDS011;61968;48.178;11.566;2022-07-12T08:17:23;3.28;;;1.30;;
73670;SDS011;61968;48.178;11.566;2022-07-12T08:19:49;1.95;;;0.90;;
73670;SDS011;61968;48.178;11.566;2022-07-12T08:22:16;0.68;;;0.68;;
73670;SDS011;61968;48.178;11.566;2022-07-12T08:24:42;1.05;;;0.93;;
73670;SDS011;61968;48.178;11.566;2022-07-12T08:27:09;1.38;;;0.88;;
73670;SDS011;61968;48.178;11.566;2022-07-12T08:29:37;1.40;;;1.02;;
73670;SDS011;61968;48.178;11.566;2022-07-12T08:32:04;1.08;;;0.98;;
73670;SDS011;61968;48.178;11.566;2022-07-12T08:34:32;1.10;;;1.10;;
73670;SDS011;61968;48.178;11.566;2022-07-12T08:36:59;0.57;;;0.57;;
73670;SDS011;61968;48.178;11.566;2022-07-12T08:39:26;1.20;;;1.00;;
73670;SDS011;61968;48.178;11.566;2022-07-12T08:41:52;2.92;;;1.33;;
73670;SDS011;61968;48.178;11.566;2022-07-12T08:44:19;1.45;;;1.02;;
73670;SDS011;61968;48.178;11.566;2022-07-12T08:46:47;2.88;;;1.30;;
73670;SDS011;61968;48.178;11.566;2022-07-12T08:49:13;3.83;;;1.17;;
73670;SDS011;61968;48.178;11.566;2022-07-12T08:51:42;1.08;;;0.77;;
73670;SDS011;61968;48.178;11.566;2022-07-12T08:54:10;2.30;;;1.25;;
73670;SDS011;61968;48.178;11.566;2022-07-12T08:56:38;2.10;;;1.33;;
73670;SDS011;61968;48.178;11.566;2022-07-12T08:59:09;1.52;;;1.00;;
73670;SDS011;61968;48.178;11.566;2022-07-12T09:01:44;0.85;;;0.85;;
73670;SDS011;61968;48.178;11.566;2022-07-12T09:04:15;1.13;;;1.02;;
73670;SDS011;61968;48.178;11.566;2022-07-12T09:06:43;2.40;;;0.93;;
73670;SDS011;61968;48.178;11.566;2022-07-12T09:09:09;1.85;;;1.10;;
73670;SDS011;61968;48.178;11.566;2022-07-12T09:11:37;1.35;;;0.93;;
73670;SDS011;61968;48.178;11.566;2022-07-12T09:14:04;1.20;;;0.75;;
73670;SDS011;61968;48.178;11.566;2022-07-12T09:16:32;1.95;;;1.48;;
73670;SDS011;61968;48.178;11.566;2022-07-12T09:19:12;0.80;;;0.80;;
73670;SDS011;61968;48.178;11.566;2022-07-12T09:21:45;1.15;;;0.70;;
73670;SDS011;61968;48.178;11.566;2022-07-12T09:24:14;0.95;;;0.88;;
73670;SDS011;61968;48.178;11.566;2022-07-12T09:26:42;2.40;;;1.10;;
73670;SDS011;61968;48.178;11.566;2022-07-12T09:29:10;1.60;;;1.50;;
73670;SDS011;61968;48.178;11.566;2022-07-12T09:31:38;0.90;;;0.90;;
73670;SDS011;61968;48.178;11.566;2022-07-12T09:34:05;1.48;;;1.38;;
73670;SDS011;61968;48.178;11.566;2022-07-12T09:37:00;1.33;;;1.20;;
73670;SDS011;61968;48.178;11.566;2022-07-12T09:39:26;1.05;;;1.00;;
73670;SDS011;61968;48.178;11.566;2022-07-12T09:41:54;0.93;;;0.93;;
73670;SDS011;61968;48.178;11.566;2022-07-12T09:44:21;5.32;;;1.13;;
73670;SDS011;61968;48.178;11.566;2022-07-12T09:46:50;0.63;;;0.63;;
73670;SDS011;61968;48.178;11.566;2022-07-12T09:49:17;1.15;;;0.90;;
73670;SDS011;61968;48.178;11.566;2022-07-12T09:51:48;0.73;;;0.70;;
73670;SDS011;61968;48.178;11.566;2022-07-12T09:54:20;5.38;;;0.82;;
73670;SDS011;61968;48.178;11.566;2022-07-12T09:56:52;0.90;;;0.90;;
73670;SDS011;61968;48.178;11.566;2022-07-12T09:59:20;3.78;;;1.60;;
73670;SDS011;61968;48.178;11.566;2022-07-12T10:01:49;1.35;;;1.25;;
73670;SDS011;61968;48.178;11.566;2022-07-12T10:04:18;1.38;;;1.25;;
73670;SDS011;61968;48.178;11.566;2022-07-12T10:06:46;0.82;;;0.75;;
73670;SDS011;61968;48.178;11.566;2022-07-12T10:09:13;3.17;;;1.27;;
73670;SDS011;61968;48.178;11.566;2022-07-12T10:11:42;1.10;;;1.05;;
73670;SDS011;61968;48.178;11.566;2022-07-12T10:14:09;1.20;;;1.05;;
73670;SDS011;61968;48.178;11.566;2022-07-12T10:16:37;0.70;;;0.70;;
73670;SDS011;61968;48.178;11.566;2022-07-12T10:19:25;1.08;;;0.93;;
73670;SDS011;61968;48.178;11.566;2022-07-12T10:21:53;0.50;;;0.50;;
73670;SDS011;61968;48.178;11.566;2022-07-12T10:27:33;1.38;;;1.27;;
73670;SDS011;61968;48.178;11.566;2022-07-12T10:30:12;1.55;;;1.42;;
73670;SDS011;61968;48.178;11.566;2022-07-12T10:32:44;1.58;;;1.02;;
73670;SDS011;61968;48.178;11.566;2022-07-12T10:35:12;1.42;;;0.93;;
73670;SDS011;61968;48.178;11.566;2022-07-12T10:37:40;0.60;;;0.60;;
73670;SDS011;61968;48.178;11.566;2022-07-12T10:40:13;3.03;;;0.90;;
73670;SDS011;61968;48.178;11.566;2022-07-12T10:45:41;0.90;;;0.75;;
73670;SDS011;61968;48.178;11.566;2022-07-12T10:48:09;1.13;;;0.85;;
73670;SDS011;61968;48.178;11.566;2022-07-12T10:50:50;1.15;;;1.10;;
73670;SDS011;61968;48.178;11.566;2022-07-12T10:56:11;13.20;;;7.95;;
73670;SDS011;61968;48.178;11.566;2022-07-12T10:58:45;11.18;;;1.65;;
73670;SDS011;61968;48.178;11.566;2022-07-12T11:01:13;0.98;;;0.95;;
73670;SDS011;61968;48.178;11.566;2022-07-12T11:03:42;1.15;;;0.90;;
73670;SDS011;61968;48.178;11.566;2022-07-12T11:06:11;0.85;;;0.82;;
73670;SDS011;61968;48.178;11.566;2022-07-12T11:11:30;0.70;;;0.70;;
73670;SDS011;61968;48.178;11.566;2022-07-12T11:13:59;0.80;;;0.80;;
73670;SDS011;61968;48.178;11.566;2022-07-12T11:16:27;0.55;;;0.55;;
73670;SDS011;61968;48.178;11.566;2022-07-12T11:18:54;1.02;;;0.43;;
73670;SDS011;61968;48.178;11.566;2022-07-12T11:21:22;0.60;;;0.60;;
73670;SDS011;61968;48.178;11.566;2022-07-12T11:23:49;0.77;;;0.77;;
73670;SDS011;61968;48.178;11.566;2022-07-12T11:26:16;1.10;;;0.98;;
73670;SDS011;61968;48.178;11.566;2022-07-12T11:28:44;0.63;;;0.63;;
73670;SDS011;61968;48.178;11.566;2022-07-12T11:31:14;0.52;;;0.52;;
73670;SDS011;61968;48.178;11.566;2022-07-12T11:33:42;1.33;;;1.15;;
73670;SDS011;61968;48.178;11.566;2022-07-12T11:36:10;1.10;;;1.05;;
73670;SDS011;61968;48.178;11.566;2022-07-12T11:38:39;2.00;;;0.82;;
73670;SDS011;61968;48.178;11.566;2022-07-12T11:41:07;0.57;;;0.50;;
73670;SDS011;61968;48.178;11.566;2022-07-12T11:43:35;0.80;;;0.70;;
73670;SDS011;61968;48.178;11.566;2022-07-12T11:46:03;0.82;;;0.60;;
73670;SDS011;61968;48.178;11.566;2022-07-12T11:48:32;0.40;;;0.40;;
73670;SDS011;61968;48.178;11.566;2022-07-12T11:51:00;0.50;;;0.50;;
73670;SDS011;61968;48.178;11.566;2022-07-12T11:53:28;7.32;;;0.70;;
73670;SDS011;61968;48.178;11.566;2022-07-12T11:55:56;0.40;;;0.40;;
73670;SDS011;61968;48.178;11.566;2022-07-12T11:58:23;0.93;;;0.90;;
73670;SDS011;61968;48.178;11.566;2022-07-12T12:00:51;0.90;;;0.52;;
73670;SDS011;61968;48.178;11.566;2022-07-12T12:03:19;5.25;;;0.60;;
73670;SDS011;61968;48.178;11.566;2022-07-12T12:05:49;0.50;;;0.50;;
73670;SDS011;61968;48.178;11.566;2022-07-12T12:08:17;0.50;;;0.50;;
73670;SDS011;61968;48.178;11.566;2022-07-12T12:10:51;0.35;;;0.35;;
73670;SDS011;61968;48.178;11.566;2022-07-12T12:13:19;0.30;;;0.30;;
73670;SDS011;61968;48.178;11.566;2022-07-12T12:15:48;0.25;;;0.25;;
73670;SDS011;61968;48.178;11.566;2022-07-12T12:18:16;0.30;;;0.25;;
73670;SDS011;61968;48.178;11.566;2022-07-12T12:20:42;0.90;;;0.82;;
73670;SDS011;61968;48.178;11.566;2022-07-12T12:23:15;0.88;;;0.75;;
73670;SDS011;61968;48.178;11.566;2022-07-12T12:25:43;2.63;;;0.43;;
73670;SDS011;61968;48.178;11.566;2022-07-12T12:28:10;0.75;;;0.70;;
73670;SDS011;61968;48.178;11.566;2022-07-12T12:30:47;0.30;;;0.30;;
73670;SDS011;61968;48.178;11.566;2022-07-12T12:33:32;3.72;;;0.45;;
73670;SDS011;61968;48.178;11.566;2022-07-12T12:36:10;0.40;;;0.40;;
73670;SDS011;61968;48.178;11.566;2022-07-12T12:41:05;3.53;;;1.05;;
73670;SDS011;61968;48.178;11.566;2022-07-12T12:43:31;0.70;;;0.70;;
73670;SDS011;61968;48.178;11.566;2022-07-12T12:45:58;0.52;;;0.52;;
73670;SDS011;61968;48.178;11.566;2022-07-12T12:48:25;0.60;;;0.60;;
73670;SDS011;61968;48.178;11.566;2022-07-12T12:50:52;1.23;;;0.50;;
73670;SDS011;61968;48.178;11.566;2022-07-12T12:53:20;0.70;;;0.50;;
73670;SDS011;61968;48.178;11.566;2022-07-12T12:55:50;0.55;;;0.50;;
73670;SDS011;61968;48.178;11.566;2022-07-12T12:58:19;0.93;;;0.73;;
73670;SDS011;61968;48.178;11.566;2022-07-12T13:00:47;1.27;;;1.00;;
73670;SDS011;61968;48.178;11.566;2022-07-12T13:03:16;2.15;;;1.55;;
73670;SDS011;61968;48.178;11.566;2022-07-12T13:05:43;1.50;;;1.27;;
73670;SDS011;61968;48.178;11.566;2022-07-12T13:08:12;0.88;;;0.88;;
73670;SDS011;61968;48.178;11.566;2022-07-12T13:10:40;1.10;;;1.00;;
73670;SDS011;61968;48.178;11.566;2022-07-12T13:13:10;0.93;;;0.70;;
73670;SDS011;61968;48.178;11.566;2022-07-12T13:15:37;0.60;;;0.60;;
73670;SDS011;61968;48.178;11.566;2022-07-12T13:18:04;0.50;;;0.40;;
73670;SDS011;61968;48.178;11.566;2022-07-12T13:20:32;0.50;;;0.50;;
73670;SDS011;61968;48.178;11.566;2022-07-12T13:22:59;0.55;;;0.55;;
73670;SDS011;61968;48.178;11.566;2022-07-12T13:25:25;0.73;;;0.73;;
73670;SDS011;61968;48.178;11.566;2022-07-12T13:27:52;0.85;;;0.70;;
73670;SDS011;61968;48.178;11.566;2022-07-12T13:30:20;0.65;;;0.65;;
73670;SDS011;61968;48.178;11.566;2022-07-12T13:32:47;1.27;;;0.52;;
73670;SDS011;61968;48.178;11.566;2022-07-12T13:35:13;2.67;;;0.70;;
73670;SDS011;61968;48.178;11.566;2022-07-12T13:37:40;0.60;;;0.52;;
73670;SDS011;61968;48.178;11.566;2022-07-12T13:40:08;0.82;;;0.82;;
73670;SDS011;61968;48.178;11.566;2022-07-12T13:42:43;2.28;;;0.65;;
73670;SDS011;61968;48.178;11.566;2022-07-12T13:45:11;0.50;;;0.50;;
73670;SDS011;61968;48.178;11.566;2022-07-12T13:47:42;0.70;;;0.57;;
73670;SDS011;61968;48.178;11.566;2022-07-12T13:50:09;3.88;;;0.73;;
73670;SDS011;61968;48.178;11.566;2022-07-12T13:52:37;2.67;;;1.58;;
73670;SDS011;61968;48.178;11.566;2022-07-12T13:55:06;2.30;;;1.13;;
73670;SDS011;61968;48.178;11.566;2022-07-12T13:57:33;1.50;;;1.27;;
73670;SDS011;61968;48.178;11.566;2022-07-12T14:00:03;0.65;;;0.65;;
73670;SDS011;61968;48.178;11.566;2022-07-12T14:02:33;1.48;;;1.38;;
73670;SDS011;61968;48.178;11.566;2022-07-12T14:05:02;1.88;;;1.08;;
73670;SDS011;61968;48.178;11.566;2022-07-12T14:07:31;0.50;;;0.50;;
73670;SDS011;61968;48.178;11.566;2022-07-12T14:09:57;0.85;;;0.70;;
73670;SDS011;61968;48.178;11.566;2022-07-12T14:12:25;1.83;;;1.00;;
73670;SDS011;61968;48.178;11.566;2022-07-12T14:14:51;0.60;;;0.60;;
73670;SDS011;61968;48.178;11.566;2022-07-12T14:17:35;1.38;;;0.80;;
73670;SDS011;61968;48.178;11.566;2022-07-12T14:20:04;1.95;;;0.65;;
73670;SDS011;61968;48.178;11.566;2022-07-12T14:22:33;1.45;;;1.10;;
73670;SDS011;61968;48.178;11.566;2022-07-12T14:25:00;0.60;;;0.60;;
73670;SDS011;61968;48.178;11.566;2022-07-12T14:27:27;0.45;;;0.45;;
73670;SDS011;61968;48.178;11.566;2022-07-12T14:29:54;2.33;;;1.52;;
73670;SDS011;61968;48.178;11.566;2022-07-12T14:32:20;1.85;;;0.70;;
73670;SDS011;61968;48.178;11.566;2022-07-12T14:34:47;2.60;;;2.40;;
73670;SDS011;61968;48.178;11.566;2022-07-12T14:37:15;2.58;;;1.52;;
73670;SDS011;61968;48.178;11.566;2022-07-12T14:39:41;2.33;;;0.90;;
73670;SDS011;61968;48.178;11.566;2022-07-12T14:42:08;0.70;;;0.70;;
73670;SDS011;61968;48.178;11.566;2022-07-12T14:44:35;0.70;;;0.70;;
73670;SDS011;61968;48.178;11.566;2022-07-12T14:47:01;3.40;;;0.95;;
73670;SDS011;61968;48.178;11.566;2022-07-12T14:49:28;0.90;;;0.80;;
73670;SDS011;61968;48.178;11.566;2022-07-12T14:51:55;1.20;;;0.43;;
73670;SDS011;61968;48.178;11.566;2022-07-12T14:54:23;0.60;;;0.60;;